sensor_id;sensor_type;location;lat;lon;timestamp;pressure;altitude;pressure_sealevel;temperature;humidity
44839;BME280;30576;42.098;24.876;2023-08-12T00:01:17;100016.69;;;23.12;50.65
44839;BME280;30576;42.098;24.876;2023-08-12T00:03:46;100057.25;;;23.38;49.29
44839;BME280;30576;42.098;24.876;2023-08-12T00:06:11;100037.44;;;23.24;49.14
44839;BME280;30576;42.098;24.876;2023-08-12T00:08:37;100033.31;;;23.19;49.82
44839;BME280;30576;42.098;24.876;2023-08-12T00:11:02;99991.50;;;22.99;49.78
44839;BME280;30576;42.098;24.876;2023-08-12T00:13:28;100056.59;;;23.34;50.03
44839;BME280;30576;42.098;24.876;2023-08-12T00:15:53;100051.50;;;23.30;49.77
44839;BME280;30576;42.098;24.876;2023-08-12T00:18:19;100076.47;;;23.46;50.12
44839;BME280;30576;42.098;24.876;2023-08-12T00:20:44;100054.66;;;23.36;50.17
44839;BME280;30576;42.098;24.876;2023-08-12T00:23:10;100045.63;;;23.37;50.27
44839;BME280;30576;42.098;24.876;2023-08-12T00:25:35;100060.81;;;23.38;50.19
44839;BME280;30576;42.098;24.876;2023-08-12T00:28:01;100077.25;;;23.48;50.43
44839;BME280;30576;42.098;24.876;2023-08-12T00:30:27;100054.38;;;23.27;50.40
44839;BME280;30576;42.098;24.876;2023-08-12T00:32:53;100075.72;;;23.30;50.64
44839;BME280;30576;42.098;24.876;2023-08-12T00:35:18;100068.88;;;23.24;50.23
44839;BME280;30576;42.098;24.876;2023-08-12T00:37:45;100081.25;;;23.12;50.73
44839;BME280;30576;42.098;24.876;2023-08-12T00:40:10;100055.84;;;23.02;51.11
44839;BME280;30576;42.098;24.876;2023-08-12T00:42:36;100068.94;;;23.08;51.33
44839;BME280;30576;42.098;24.876;2023-08-12T00:45:01;100080.34;;;22.97;50.81
44839;BME280;30576;42.098;24.876;2023-08-12T00:47:29;100052.44;;;22.84;51.27
44839;BME280;30576;42.098;24.876;2023-08-12T00:49:56;100033.50;;;22.71;51.52
44839;BME280;30576;42.098;24.876;2023-08-12T00:52:23;100061.84;;;22.77;51.58
44839;BME280;30576;42.098;24.876;2023-08-12T00:54:48;100071.19;;;22.85;51.65
44839;BME280;30576;42.098;24.876;2023-08-12T00:57:15;100040.69;;;22.70;51.16
44839;BME280;30576;42.098;24.876;2023-08-12T00:59:41;100048.56;;;22.74;50.91
44839;BME280;30576;42.098;24.876;2023-08-12T01:02:09;100069.69;;;22.65;50.80
44839;BME280;30576;42.098;24.876;2023-08-12T01:04:34;100062.94;;;22.58;50.81
44839;BME280;30576;42.098;24.876;2023-08-12T01:07:00;100073.00;;;22.55;51.02
44839;BME280;30576;42.098;24.876;2023-08-12T01:09:25;100039.31;;;22.33;51.07
44839;BME280;30576;42.098;24.876;2023-08-12T01:12:08;100071.34;;;22.52;51.37
44839;BME280;30576;42.098;24.876;2023-08-12T01:14:45;100051.00;;;22.48;51.83
44839;BME280;30576;42.098;24.876;2023-08-12T01:17:14;100033.06;;;22.16;51.91
44839;BME280;30576;42.098;24.876;2023-08-12T01:19:41;100065.34;;;22.32;52.11
44839;BME280;30576;42.098;24.876;2023-08-12T01:22:10;100061.25;;;22.09;51.97
44839;BME280;30576;42.098;24.876;2023-08-12T01:24:39;100069.22;;;22.11;52.10
44839;BME280;30576;42.098;24.876;2023-08-12T01:27:06;100043.78;;;21.86;52.62
44839;BME280;30576;42.098;24.876;2023-08-12T01:29:33;100041.84;;;22.04;52.56
44839;BME280;30576;42.098;24.876;2023-08-12T01:32:18;100032.91;;;22.04;52.58
44839;BME280;30576;42.098;24.876;2023-08-12T01:35:02;100056.47;;;22.14;52.89
44839;BME280;30576;42.098;24.876;2023-08-12T01:37:32;100045.41;;;22.05;53.13
44839;BME280;30576;42.098;24.876;2023-08-12T01:40:00;100041.34;;;21.97;53.44
44839;BME280;30576;42.098;24.876;2023-08-12T01:42:32;100002.44;;;21.73;53.11
44839;BME280;30576;42.098;24.876;2023-08-12T01:44:58;100056.75;;;21.94;53.48
44839;BME280;30576;42.098;24.876;2023-08-12T01:47:24;100019.31;;;21.75;53.48
44839;BME280;30576;42.098;24.876;2023-08-12T01:49:50;100004.25;;;21.56;53.62
44839;BME280;30576;42.098;24.876;2023-08-12T01:52:15;99994.59;;;21.36;53.41
44839;BME280;30576;42.098;24.876;2023-08-12T01:54:41;100043.59;;;21.40;54.03
44839;BME280;30576;42.098;24.876;2023-08-12T01:57:06;100036.97;;;21.14;54.64
44839;BME280;30576;42.098;24.876;2023-08-12T01:59:36;100075.25;;;21.33;54.53
44839;BME280;30576;42.098;24.876;2023-08-12T02:02:02;100055.00;;;21.27;53.76
44839;BME280;30576;42.098;24.876;2023-08-12T02:04:28;100071.16;;;21.26;54.59
44839;BME280;30576;42.098;24.876;2023-08-12T02:06:54;100070.28;;;21.25;54.59
44839;BME280;30576;42.098;24.876;2023-08-12T02:09:20;100068.41;;;21.10;55.35
44839;BME280;30576;42.098;24.876;2023-08-12T02:11:48;100026.56;;;21.07;55.11
44839;BME280;30576;42.098;24.876;2023-08-12T02:14:14;100068.31;;;21.29;55.35
44839;BME280;30576;42.098;24.876;2023-08-12T02:16:40;100066.81;;;21.23;55.85
44839;BME280;30576;42.098;24.876;2023-08-12T02:19:05;100069.22;;;21.45;55.42
44839;BME280;30576;42.098;24.876;2023-08-12T02:21:31;100044.84;;;21.17;55.94
44839;BME280;30576;42.098;24.876;2023-08-12T02:23:56;100069.75;;;21.19;55.54
44839;BME280;30576;42.098;24.876;2023-08-12T02:26:22;100057.69;;;21.10;56.08
44839;BME280;30576;42.098;24.876;2023-08-12T02:28:47;100065.56;;;21.13;56.16
44839;BME280;30576;42.098;24.876;2023-08-12T02:31:13;100096.81;;;21.14;56.20
44839;BME280;30576;42.098;24.876;2023-08-12T02:33:39;100059.22;;;20.98;56.26
44839;BME280;30576;42.098;24.876;2023-08-12T02:36:04;100061.81;;;21.00;56.43
44839;BME280;30576;42.098;24.876;2023-08-12T02:38:30;100044.94;;;20.80;56.50
44839;BME280;30576;42.098;24.876;2023-08-12T02:40:55;100079.00;;;20.96;56.75
44839;BME280;30576;42.098;24.876;2023-08-12T02:43:21;100066.81;;;20.90;56.60
44839;BME280;30576;42.098;24.876;2023-08-12T02:45:46;100070.19;;;20.93;56.66
44839;BME280;30576;42.098;24.876;2023-08-12T02:48:12;100095.63;;;21.20;56.51
44839;BME280;30576;42.098;24.876;2023-08-12T02:50:38;100095.06;;;21.31;56.50
44839;BME280;30576;42.098;24.876;2023-08-12T02:53:05;100075.13;;;21.19;56.30
44839;BME280;30576;42.098;24.876;2023-08-12T02:55:30;100096.78;;;21.32;56.33
44839;BME280;30576;42.098;24.876;2023-08-12T02:57:58;100079.63;;;21.18;56.80
44839;BME280;30576;42.098;24.876;2023-08-12T03:00:23;100094.34;;;21.27;57.18
44839;BME280;30576;42.098;24.876;2023-08-12T03:02:49;100065.16;;;21.21;57.27
44839;BME280;30576;42.098;24.876;2023-08-12T03:05:14;100079.84;;;21.31;57.18
44839;BME280;30576;42.098;24.876;2023-08-12T03:07:40;100046.31;;;21.22;57.08
44839;BME280;30576;42.098;24.876;2023-08-12T03:10:06;100062.72;;;21.34;57.24
44839;BME280;30576;42.098;24.876;2023-08-12T03:12:32;100075.34;;;21.49;56.88
44839;BME280;30576;42.098;24.876;2023-08-12T03:14:57;100082.31;;;21.52;56.94
44839;BME280;30576;42.098;24.876;2023-08-12T03:17:22;100085.41;;;21.61;56.73
44839;BME280;30576;42.098;24.876;2023-08-12T03:19:48;100103.22;;;21.62;56.97
44839;BME280;30576;42.098;24.876;2023-08-12T03:22:14;100078.41;;;21.41;57.62
44839;BME280;30576;42.098;24.876;2023-08-12T03:24:40;100092.66;;;21.42;56.36
44839;BME280;30576;42.098;24.876;2023-08-12T03:27:05;100083.84;;;21.40;56.22
44839;BME280;30576;42.098;24.876;2023-08-12T03:29:31;100081.97;;;21.24;56.97
44839;BME280;30576;42.098;24.876;2023-08-12T03:31:56;100092.59;;;21.43;56.55
44839;BME280;30576;42.098;24.876;2023-08-12T03:34:22;100089.44;;;21.53;56.55
44839;BME280;30576;42.098;24.876;2023-08-12T03:36:47;100105.72;;;21.50;57.13
44839;BME280;30576;42.098;24.876;2023-08-12T03:39:14;100092.06;;;21.37;57.58
44839;BME280;30576;42.098;24.876;2023-08-12T03:41:40;100103.03;;;21.50;57.80
44839;BME280;30576;42.098;24.876;2023-08-12T03:44:05;100080.84;;;21.46;57.55
44839;BME280;30576;42.098;24.876;2023-08-12T03:46:31;100093.69;;;21.57;57.42
44839;BME280;30576;42.098;24.876;2023-08-12T03:48:56;100103.78;;;21.69;56.55
44839;BME280;30576;42.098;24.876;2023-08-12T03:51:22;100097.06;;;21.60;56.12
44839;BME280;30576;42.098;24.876;2023-08-12T03:53:47;100114.59;;;21.68;56.38
44839;BME280;30576;42.098;24.876;2023-08-12T03:56:13;100077.94;;;21.51;56.64
44839;BME280;30576;42.098;24.876;2023-08-12T03:58:41;100115.81;;;21.78;56.64
44839;BME280;30576;42.098;24.876;2023-08-12T04:01:07;100072.47;;;21.52;56.49
44839;BME280;30576;42.098;24.876;2023-08-12T04:03:32;100108.41;;;21.66;57.27
44839;BME280;30576;42.098;24.876;2023-08-12T04:05:58;100079.41;;;21.56;56.71
44839;BME280;30576;42.098;24.876;2023-08-12T04:08:23;100080.13;;;21.60;56.44
44839;BME280;30576;42.098;24.876;2023-08-12T04:10:50;100122.66;;;21.84;55.68
44839;BME280;30576;42.098;24.876;2023-08-12T04:13:17;100127.03;;;21.69;56.05
44839;BME280;30576;42.098;24.876;2023-08-12T04:15:42;100097.41;;;21.54;55.70
44839;BME280;30576;42.098;24.876;2023-08-12T04:18:08;100080.09;;;21.42;55.21
44839;BME280;30576;42.098;24.876;2023-08-12T04:20:33;100070.44;;;21.40;55.10
44839;BME280;30576;42.098;24.876;2023-08-12T04:22:59;100112.69;;;21.70;55.12
44839;BME280;30576;42.098;24.876;2023-08-12T04:25:25;100123.34;;;21.87;55.60
44839;BME280;30576;42.098;24.876;2023-08-12T04:27:50;100098.31;;;21.87;55.84
44839;BME280;30576;42.098;24.876;2023-08-12T04:30:17;100128.03;;;21.99;56.07
44839;BME280;30576;42.098;24.876;2023-08-12T04:32:42;100104.53;;;21.71;56.67
44839;BME280;30576;42.098;24.876;2023-08-12T04:35:08;100114.88;;;21.79;56.33
44839;BME280;30576;42.098;24.876;2023-08-12T04:37:35;100122.25;;;21.58;57.06
44839;BME280;30576;42.098;24.876;2023-08-12T04:40:00;100111.09;;;21.32;58.02
44839;BME280;30576;42.098;24.876;2023-08-12T04:42:26;100127.72;;;21.39;58.11
44839;BME280;30576;42.098;24.876;2023-08-12T04:44:51;100134.38;;;21.49;57.76
44839;BME280;30576;42.098;24.876;2023-08-12T04:47:17;100106.88;;;21.44;57.60
44839;BME280;30576;42.098;24.876;2023-08-12T04:49:42;100108.09;;;21.38;58.10
44839;BME280;30576;42.098;24.876;2023-08-12T04:52:08;100126.44;;;21.63;57.77
44839;BME280;30576;42.098;24.876;2023-08-12T04:54:33;100125.78;;;21.76;58.10
44839;BME280;30576;42.098;24.876;2023-08-12T04:56:59;100137.41;;;21.92;57.87
44839;BME280;30576;42.098;24.876;2023-08-12T04:59:25;100133.22;;;21.87;58.18
44839;BME280;30576;42.098;24.876;2023-08-12T05:01:50;100126.84;;;21.89;57.65
44839;BME280;30576;42.098;24.876;2023-08-12T05:04:16;100114.88;;;21.79;57.71
44839;BME280;30576;42.098;24.876;2023-08-12T05:06:43;100117.38;;;21.82;57.46
44839;BME280;30576;42.098;24.876;2023-08-12T05:09:08;100138.44;;;22.06;56.92
44839;BME280;30576;42.098;24.876;2023-08-12T05:11:34;100122.16;;;21.93;57.03
44839;BME280;30576;42.098;24.876;2023-08-12T05:13:59;100127.00;;;22.02;57.37
44839;BME280;30576;42.098;24.876;2023-08-12T05:16:25;100152.44;;;22.12;57.60
44839;BME280;30576;42.098;24.876;2023-08-12T05:18:51;100117.38;;;21.98;57.21
44839;BME280;30576;42.098;24.876;2023-08-12T05:21:18;100147.81;;;22.14;57.94
44839;BME280;30576;42.098;24.876;2023-08-12T05:23:43;100138.19;;;22.10;57.64
44839;BME280;30576;42.098;24.876;2023-08-12T05:26:09;100122.31;;;22.06;57.67
44839;BME280;30576;42.098;24.876;2023-08-12T05:28:34;100154.06;;;22.15;58.01
44839;BME280;30576;42.098;24.876;2023-08-12T05:31:00;100157.88;;;22.27;57.37
44839;BME280;30576;42.098;24.876;2023-08-12T05:33:25;100126.25;;;22.16;57.32
44839;BME280;30576;42.098;24.876;2023-08-12T05:35:51;100085.53;;;22.08;56.02
44839;BME280;30576;42.098;24.876;2023-08-12T05:38:16;100115.50;;;22.32;55.80
44839;BME280;30576;42.098;24.876;2023-08-12T05:40:42;100147.91;;;22.61;55.79
44839;BME280;30576;42.098;24.876;2023-08-12T05:43:07;100120.38;;;22.57;55.83
44839;BME280;30576;42.098;24.876;2023-08-12T05:45:33;100117.34;;;22.78;54.67
44839;BME280;30576;42.098;24.876;2023-08-12T05:48:00;100119.00;;;22.80;54.89
44839;BME280;30576;42.098;24.876;2023-08-12T05:50:26;100134.72;;;23.02;54.16
44839;BME280;30576;42.098;24.876;2023-08-12T05:52:51;100110.69;;;22.99;54.05
44839;BME280;30576;42.098;24.876;2023-08-12T05:55:17;100103.00;;;22.93;53.99
44839;BME280;30576;42.098;24.876;2023-08-12T05:57:42;100114.72;;;22.92;54.02
44839;BME280;30576;42.098;24.876;2023-08-12T06:00:08;100117.41;;;23.22;53.42
44839;BME280;30576;42.098;24.876;2023-08-12T06:02:35;100088.38;;;23.28;54.07
44839;BME280;30576;42.098;24.876;2023-08-12T06:05:08;100126.78;;;23.89;52.12
44839;BME280;30576;42.098;24.876;2023-08-12T06:07:33;100115.38;;;24.27;50.55
44839;BME280;30576;42.098;24.876;2023-08-12T06:10:00;100100.59;;;24.33;49.27
44839;BME280;30576;42.098;24.876;2023-08-12T06:12:25;100110.69;;;24.43;50.00
44839;BME280;30576;42.098;24.876;2023-08-12T06:14:51;100101.69;;;24.30;49.84
44839;BME280;30576;42.098;24.876;2023-08-12T06:17:17;100121.66;;;24.55;48.75
44839;BME280;30576;42.098;24.876;2023-08-12T06:19:43;100106.78;;;24.62;48.23
44839;BME280;30576;42.098;24.876;2023-08-12T06:22:09;100129.78;;;24.95;47.50
44839;BME280;30576;42.098;24.876;2023-08-12T06:24:34;100098.78;;;25.00;47.50
44839;BME280;30576;42.098;24.876;2023-08-12T06:27:00;100110.91;;;25.20;47.08
44839;BME280;30576;42.098;24.876;2023-08-12T06:29:25;100116.78;;;25.66;46.92
44839;BME280;30576;42.098;24.876;2023-08-12T06:31:52;100071.22;;;25.35;46.33
44839;BME280;30576;42.098;24.876;2023-08-12T06:34:18;100072.34;;;25.70;44.47
44839;BME280;30576;42.098;24.876;2023-08-12T06:36:43;100115.06;;;25.65;44.84
44839;BME280;30576;42.098;24.876;2023-08-12T06:39:09;100092.69;;;25.50;44.70
44839;BME280;30576;42.098;24.876;2023-08-12T06:41:34;100122.50;;;26.00;45.31
44839;BME280;30576;42.098;24.876;2023-08-12T06:44:00;100102.34;;;26.04;43.83
44839;BME280;30576;42.098;24.876;2023-08-12T06:46:26;100113.38;;;26.14;43.65
44839;BME280;30576;42.098;24.876;2023-08-12T06:48:51;100098.84;;;26.27;42.54
44839;BME280;30576;42.098;24.876;2023-08-12T06:51:17;100085.53;;;26.49;41.35
44839;BME280;30576;42.098;24.876;2023-08-12T06:53:42;100111.38;;;26.77;41.23
44839;BME280;30576;42.098;24.876;2023-08-12T06:56:08;100108.63;;;26.90;41.53
44839;BME280;30576;42.098;24.876;2023-08-12T06:58:34;100102.13;;;27.39;41.04
44839;BME280;30576;42.098;24.876;2023-08-12T07:00:59;100079.47;;;27.63;40.53
44839;BME280;30576;42.098;24.876;2023-08-12T07:03:25;100109.25;;;27.85;39.54
44839;BME280;30576;42.098;24.876;2023-08-12T07:05:51;100084.03;;;27.96;38.74
44839;BME280;30576;42.098;24.876;2023-08-12T07:08:16;100078.91;;;28.14;38.15
44839;BME280;30576;42.098;24.876;2023-08-12T07:10:42;100091.84;;;28.33;38.14
44839;BME280;30576;42.098;24.876;2023-08-12T07:13:07;100063.94;;;28.43;37.28
44839;BME280;30576;42.098;24.876;2023-08-12T07:15:33;100054.06;;;28.42;36.30
44839;BME280;30576;42.098;24.876;2023-08-12T07:17:59;100072.00;;;28.21;36.56
44839;BME280;30576;42.098;24.876;2023-08-12T07:20:25;100104.06;;;28.28;36.29
44839;BME280;30576;42.098;24.876;2023-08-12T07:22:50;100060.06;;;28.13;36.33
44839;BME280;30576;42.098;24.876;2023-08-12T07:25:16;100085.44;;;28.23;38.10
44839;BME280;30576;42.098;24.876;2023-08-12T07:27:42;100090.78;;;28.89;36.94
44839;BME280;30576;42.098;24.876;2023-08-12T07:30:07;100090.69;;;29.01;35.23
44839;BME280;30576;42.098;24.876;2023-08-12T07:32:33;100068.25;;;28.78;35.79
44839;BME280;30576;42.098;24.876;2023-08-12T07:34:59;100079.56;;;28.62;35.22
44839;BME280;30576;42.098;24.876;2023-08-12T07:37:25;100072.56;;;28.80;35.22
44839;BME280;30576;42.098;24.876;2023-08-12T07:39:51;100042.56;;;28.82;35.08
44839;BME280;30576;42.098;24.876;2023-08-12T07:42:17;100057.66;;;28.96;34.35
44839;BME280;30576;42.098;24.876;2023-08-12T07:44:43;100063.09;;;28.96;35.45
44839;BME280;30576;42.098;24.876;2023-08-12T07:47:08;100082.69;;;28.99;36.21
44839;BME280;30576;42.098;24.876;2023-08-12T07:49:34;100082.56;;;28.80;34.91
44839;BME280;30576;42.098;24.876;2023-08-12T07:52:00;100059.44;;;29.06;35.96
44839;BME280;30576;42.098;24.876;2023-08-12T07:54:26;100077.28;;;29.41;33.14
44839;BME280;30576;42.098;24.876;2023-08-12T07:56:51;100060.72;;;29.54;33.08
44839;BME280;30576;42.098;24.876;2023-08-12T07:59:19;100056.00;;;29.25;32.15
44839;BME280;30576;42.098;24.876;2023-08-12T08:01:44;100046.09;;;29.45;33.45
44839;BME280;30576;42.098;24.876;2023-08-12T08:04:10;100046.75;;;29.69;31.66
44839;BME280;30576;42.098;24.876;2023-08-12T08:06:36;100029.84;;;29.86;31.37
44839;BME280;30576;42.098;24.876;2023-08-12T08:09:01;100067.13;;;30.25;33.16
44839;BME280;30576;42.098;24.876;2023-08-12T08:11:30;100062.59;;;30.74;32.58
44839;BME280;30576;42.098;24.876;2023-08-12T08:13:57;100034.03;;;31.08;31.43
44839;BME280;30576;42.098;24.876;2023-08-12T08:16:23;100047.50;;;31.19;30.58
44839;BME280;30576;42.098;24.876;2023-08-12T08:18:49;100054.13;;;31.54;31.50
44839;BME280;30576;42.098;24.876;2023-08-12T08:21:14;100023.91;;;31.28;29.24
44839;BME280;30576;42.098;24.876;2023-08-12T08:23:42;100047.94;;;31.52;30.00
44839;BME280;30576;42.098;24.876;2023-08-12T08:26:08;100041.75;;;31.87;28.40
44839;BME280;30576;42.098;24.876;2023-08-12T08:28:34;100046.34;;;31.87;28.70
44839;BME280;30576;42.098;24.876;2023-08-12T08:31:00;100032.50;;;31.98;28.52
44839;BME280;30576;42.098;24.876;2023-08-12T08:33:26;100036.38;;;32.23;29.26
44839;BME280;30576;42.098;24.876;2023-08-12T08:35:52;100057.81;;;32.18;30.26
44839;BME280;30576;42.098;24.876;2023-08-12T08:38:17;100048.56;;;32.29;28.36
44839;BME280;30576;42.098;24.876;2023-08-12T08:40:43;100034.81;;;32.21;27.44
44839;BME280;30576;42.098;24.876;2023-08-12T08:43:08;100044.78;;;32.12;27.96
44839;BME280;30576;42.098;24.876;2023-08-12T08:45:34;100023.03;;;32.20;29.66
44839;BME280;30576;42.098;24.876;2023-08-12T08:48:02;100042.94;;;32.84;27.93
44839;BME280;30576;42.098;24.876;2023-08-12T08:50:30;100038.47;;;33.10;28.38
44839;BME280;30576;42.098;24.876;2023-08-12T08:52:56;100022.44;;;33.15;27.34
44839;BME280;30576;42.098;24.876;2023-08-12T08:55:24;100019.66;;;33.25;26.65
44839;BME280;30576;42.098;24.876;2023-08-12T08:57:49;100030.13;;;32.85;27.02
44839;BME280;30576;42.098;24.876;2023-08-12T09:00:16;100047.47;;;33.02;27.54
44839;BME280;30576;42.098;24.876;2023-08-12T09:02:46;100027.94;;;32.53;27.31
44839;BME280;30576;42.098;24.876;2023-08-12T09:05:13;99976.44;;;32.58;26.88
44839;BME280;30576;42.098;24.876;2023-08-12T09:07:42;99970.09;;;32.31;28.81
44839;BME280;30576;42.098;24.876;2023-08-12T09:10:09;100017.06;;;32.97;26.77
44839;BME280;30576;42.098;24.876;2023-08-12T09:12:36;100010.09;;;32.58;26.36
44839;BME280;30576;42.098;24.876;2023-08-12T09:15:02;99989.16;;;31.95;26.98
44839;BME280;30576;42.098;24.876;2023-08-12T09:17:27;100014.78;;;32.12;26.79
44839;BME280;30576;42.098;24.876;2023-08-12T09:19:56;99983.44;;;32.16;27.16
44839;BME280;30576;42.098;24.876;2023-08-12T09:22:24;99986.09;;;32.26;27.56
44839;BME280;30576;42.098;24.876;2023-08-12T09:24:56;99990.97;;;32.58;27.10
44839;BME280;30576;42.098;24.876;2023-08-12T09:27:21;99973.81;;;32.48;27.26
44839;BME280;30576;42.098;24.876;2023-08-12T09:29:47;99965.25;;;32.43;26.66
44839;BME280;30576;42.098;24.876;2023-08-12T09:32:17;99980.94;;;32.85;27.22
44839;BME280;30576;42.098;24.876;2023-08-12T09:34:47;99976.78;;;32.99;27.01
44839;BME280;30576;42.098;24.876;2023-08-12T09:37:14;99992.50;;;33.05;26.43
44839;BME280;30576;42.098;24.876;2023-08-12T09:39:40;99968.75;;;32.97;27.22
44839;BME280;30576;42.098;24.876;2023-08-12T09:42:05;99951.16;;;32.29;26.44
44839;BME280;30576;42.098;24.876;2023-08-12T09:44:34;99976.56;;;32.48;28.89
44839;BME280;30576;42.098;24.876;2023-08-12T09:47:00;99943.16;;;32.54;28.04
44839;BME280;30576;42.098;24.876;2023-08-12T09:49:59;99965.72;;;33.09;27.61
44839;BME280;30576;42.098;24.876;2023-08-12T09:52:27;99929.91;;;32.86;27.29
44839;BME280;30576;42.098;24.876;2023-08-12T09:54:53;99926.03;;;32.96;26.30
44839;BME280;30576;42.098;24.876;2023-08-12T09:57:23;99957.59;;;33.17;26.14
44839;BME280;30576;42.098;24.876;2023-08-12T09:59:52;99969.22;;;32.93;25.78
44839;BME280;30576;42.098;24.876;2023-08-12T10:02:19;99956.63;;;33.00;25.47
44839;BME280;30576;42.098;24.876;2023-08-12T10:04:45;99929.22;;;32.83;25.90
44839;BME280;30576;42.098;24.876;2023-08-12T10:07:11;99920.22;;;32.91;25.84
44839;BME280;30576;42.098;24.876;2023-08-12T10:09:40;99939.94;;;32.77;27.06
44839;BME280;30576;42.098;24.876;2023-08-12T10:12:07;99922.31;;;32.27;26.52
44839;BME280;30576;42.098;24.876;2023-08-12T10:14:33;99937.09;;;32.42;26.20
44839;BME280;30576;42.098;24.876;2023-08-12T10:16:59;99914.53;;;32.58;29.48
44839;BME280;30576;42.098;24.876;2023-08-12T10:19:25;99936.13;;;33.22;25.01
44839;BME280;30576;42.098;24.876;2023-08-12T10:21:55;99942.41;;;33.23;26.31
44839;BME280;30576;42.098;24.876;2023-08-12T10:24:34;99913.81;;;33.09;25.44
44839;BME280;30576;42.098;24.876;2023-08-12T10:27:02;99927.41;;;33.18;27.74
44839;BME280;30576;42.098;24.876;2023-08-12T10:29:29;99910.69;;;33.30;25.66
44839;BME280;30576;42.098;24.876;2023-08-12T10:31:56;99919.44;;;33.07;25.60
44839;BME280;30576;42.098;24.876;2023-08-12T10:34:23;99932.03;;;32.47;25.91
44839;BME280;30576;42.098;24.876;2023-08-12T10:36:54;99919.03;;;32.23;27.41
44839;BME280;30576;42.098;24.876;2023-08-12T10:39:27;99916.78;;;32.63;26.80
44839;BME280;30576;42.098;24.876;2023-08-12T10:41:57;99934.44;;;32.51;25.05
44839;BME280;30576;42.098;24.876;2023-08-12T10:44:50;99920.34;;;32.37;25.26
44839;BME280;30576;42.098;24.876;2023-08-12T10:47:19;99895.03;;;32.53;26.52
44839;BME280;30576;42.098;24.876;2023-08-12T10:49:52;99900.28;;;32.64;25.89
44839;BME280;30576;42.098;24.876;2023-08-12T10:52:33;99908.47;;;32.64;25.77
44839;BME280;30576;42.098;24.876;2023-08-12T10:55:31;99908.53;;;32.81;26.14
44839;BME280;30576;42.098;24.876;2023-08-12T10:58:27;99893.22;;;32.36;26.65
44839;BME280;30576;42.098;24.876;2023-08-12T11:00:54;99891.59;;;32.69;26.70
44839;BME280;30576;42.098;24.876;2023-08-12T11:03:20;99882.63;;;32.33;26.42
44839;BME280;30576;42.098;24.876;2023-08-12T11:05:48;99910.44;;;32.62;25.86
44839;BME280;30576;42.098;24.876;2023-08-12T11:08:14;99822.38;;;32.26;26.73
44839;BME280;30576;42.098;24.876;2023-08-12T11:10:43;99852.28;;;32.36;25.40
44839;BME280;30576;42.098;24.876;2023-08-12T11:13:09;99871.44;;;32.70;28.45
44839;BME280;30576;42.098;24.876;2023-08-12T11:15:44;99862.28;;;32.53;25.67
44839;BME280;30576;42.098;24.876;2023-08-12T11:18:23;99906.66;;;32.11;26.72
44839;BME280;30576;42.098;24.876;2023-08-12T11:20:49;99848.97;;;32.06;27.68
44839;BME280;30576;42.098;24.876;2023-08-12T11:23:15;99826.25;;;32.05;26.79
44839;BME280;30576;42.098;24.876;2023-08-12T11:25:44;99851.09;;;32.38;26.92
44839;BME280;30576;42.098;24.876;2023-08-12T11:28:10;99850.94;;;32.40;27.91
44839;BME280;30576;42.098;24.876;2023-08-12T11:30:35;99858.41;;;32.38;26.75
44839;BME280;30576;42.098;24.876;2023-08-12T11:33:04;99865.16;;;32.25;26.66
44839;BME280;30576;42.098;24.876;2023-08-12T11:35:30;99858.25;;;32.13;26.90
44839;BME280;30576;42.098;24.876;2023-08-12T11:37:58;99869.06;;;32.05;27.06
44839;BME280;30576;42.098;24.876;2023-08-12T11:40:25;99879.66;;;32.08;26.73
44839;BME280;30576;42.098;24.876;2023-08-12T11:42:52;99871.34;;;31.73;26.89
44839;BME280;30576;42.098;24.876;2023-08-12T11:45:22;99873.44;;;31.34;27.81
44839;BME280;30576;42.098;24.876;2023-08-12T11:47:48;99861.63;;;31.43;27.56
44839;BME280;30576;42.098;24.876;2023-08-12T11:50:19;99841.28;;;31.19;27.57
44839;BME280;30576;42.098;24.876;2023-08-12T11:52:46;99870.53;;;31.45;27.90
44839;BME280;30576;42.098;24.876;2023-08-12T11:55:11;99867.16;;;31.61;27.02
44839;BME280;30576;42.098;24.876;2023-08-12T11:57:39;99883.47;;;31.79;27.94
44839;BME280;30576;42.098;24.876;2023-08-12T12:00:06;99853.19;;;31.82;27.87
44839;BME280;30576;42.098;24.876;2023-08-12T12:02:40;99856.31;;;31.87;28.36
44839;BME280;30576;42.098;24.876;2023-08-12T12:05:13;99835.63;;;32.03;28.44
44839;BME280;30576;42.098;24.876;2023-08-12T12:07:39;99864.28;;;32.07;27.07
44839;BME280;30576;42.098;24.876;2023-08-12T12:10:05;99863.59;;;32.05;27.34
44839;BME280;30576;42.098;24.876;2023-08-12T12:12:36;99851.59;;;31.98;27.61
44839;BME280;30576;42.098;24.876;2023-08-12T12:15:02;99818.56;;;32.01;27.59
44839;BME280;30576;42.098;24.876;2023-08-12T12:17:28;99824.94;;;32.54;27.07
44839;BME280;30576;42.098;24.876;2023-08-12T12:19:58;99831.06;;;32.82;26.08
44839;BME280;30576;42.098;24.876;2023-08-12T12:22:31;99850.09;;;32.65;26.20
44839;BME280;30576;42.098;24.876;2023-08-12T12:25:10;99846.97;;;32.60;28.49
44839;BME280;30576;42.098;24.876;2023-08-12T12:27:37;99835.47;;;32.75;26.53
44839;BME280;30576;42.098;24.876;2023-08-12T12:30:03;99833.44;;;32.77;26.06
44839;BME280;30576;42.098;24.876;2023-08-12T12:32:28;99807.13;;;32.41;25.96
44839;BME280;30576;42.098;24.876;2023-08-12T12:34:54;99830.72;;;32.51;26.98
44839;BME280;30576;42.098;24.876;2023-08-12T12:37:20;99814.44;;;32.15;27.32
44839;BME280;30576;42.098;24.876;2023-08-12T12:39:46;99817.06;;;32.24;27.21
44839;BME280;30576;42.098;24.876;2023-08-12T12:42:11;99811.00;;;31.94;27.54